createdAt,value
2017-11-11T00:00:18.605Z,1008.64
2017-11-11T00:01:18.597Z,1008.62
2017-11-11T00:02:18.596Z,1008.67
2017-11-11T00:03:18.586Z,1008.65
2017-11-11T00:04:18.576Z,1008.65
2017-11-11T00:05:39.593Z,1008.65
2017-11-11T00:06:18.562Z,1008.70
2017-11-11T00:07:18.561Z,1008.71
2017-11-11T00:08:18.549Z,1008.71
2017-11-11T00:09:18.553Z,1008.70
2017-11-11T00:10:18.536Z,1008.65
2017-11-11T00:11:39.537Z,1008.68
2017-11-11T00:12:18.521Z,1008.64
2017-11-11T00:13:18.529Z,1008.66
2017-11-11T00:14:18.507Z,1008.67
2017-11-11T00:15:18.500Z,1008.69
2017-11-11T00:16:18.494Z,1008.68
2017-11-11T00:17:39.495Z,1008.68
2017-11-11T00:18:18.483Z,1008.71
2017-11-11T00:19:18.476Z,1008.68
2017-11-11T00:20:18.469Z,1008.67
2017-11-11T00:21:18.460Z,1008.65
2017-11-11T00:22:18.456Z,1008.64
2017-11-11T00:23:39.455Z,1008.69
2017-11-11T00:24:18.439Z,1008.65
2017-11-11T00:25:18.435Z,1008.66
2017-11-11T00:26:18.426Z,1008.67
2017-11-11T00:27:18.420Z,1008.66
2017-11-11T00:28:18.414Z,1008.68
2017-11-11T00:29:39.408Z,1008.68
2017-11-11T00:30:18.398Z,1008.72
2017-11-11T00:31:18.398Z,1008.69
2017-11-11T00:32:18.390Z,1008.75
2017-11-11T00:33:18.380Z,1008.72
2017-11-11T00:34:18.372Z,1008.72
2017-11-11T00:35:39.372Z,1008.74
2017-11-11T00:36:18.357Z,1008.71
2017-11-11T00:37:18.356Z,1008.70
2017-11-11T00:38:18.345Z,1008.73
2017-11-11T00:39:18.336Z,1008.71
2017-11-11T00:40:18.333Z,1008.75
2017-11-11T00:41:39.330Z,1008.68
2017-11-11T00:42:18.318Z,1008.68
2017-11-11T00:43:18.310Z,1008.72
2017-11-11T00:44:18.303Z,1008.76
2017-11-11T00:45:18.298Z,1008.73
2017-11-11T00:46:18.291Z,1008.76
2017-11-11T00:47:39.290Z,1008.77
2017-11-11T00:48:18.284Z,1008.79
2017-11-11T00:49:18.270Z,1008.78
2017-11-11T00:50:18.261Z,1008.78
2017-11-11T00:51:18.260Z,1008.73
2017-11-11T00:52:18.254Z,1008.71
2017-11-11T00:53:39.245Z,1008.68
2017-11-11T00:54:18.237Z,1008.70
2017-11-11T00:55:18.231Z,1008.67
2017-11-11T00:56:18.222Z,1008.70
2017-11-11T00:57:18.237Z,1008.68
2017-11-11T00:58:18.209Z,1008.68
2017-11-11T00:59:39.208Z,1008.68
2017-11-11T01:00:18.193Z,1008.71
2017-11-11T01:01:18.189Z,1008.68
2017-11-11T01:02:18.183Z,1008.70
2017-11-11T01:03:18.174Z,1008.71
2017-11-11T01:04:18.174Z,1008.74
2017-11-11T01:05:39.169Z,1008.77
2017-11-11T01:06:18.153Z,1008.74
2017-11-11T01:07:18.153Z,1008.75
2017-11-11T01:08:18.147Z,1008.75
2017-11-11T01:09:18.135Z,1008.76
2017-11-11T01:10:18.126Z,1008.78
2017-11-11T01:11:39.128Z,1008.80
2017-11-11T01:12:18.115Z,1008.84
2017-11-11T01:13:18.106Z,1008.89
2017-11-11T01:14:18.101Z,1008.86
2017-11-11T01:15:18.092Z,1008.87
2017-11-11T01:16:18.087Z,1008.85
2017-11-11T01:17:39.103Z,1008.84
2017-11-11T01:18:18.083Z,1008.85
2017-11-11T01:19:18.066Z,1008.83
2017-11-11T01:20:18.057Z,1008.80
2017-11-11T01:21:18.064Z,1008.78
2017-11-11T01:22:18.045Z,1008.75
2017-11-11T01:23:39.048Z,1008.75
2017-11-11T01:24:18.031Z,1008.76
2017-11-11T01:25:18.027Z,1008.73
2017-11-11T01:26:18.018Z,1008.71
2017-11-11T01:27:18.013Z,1008.75
2017-11-11T01:28:18.005Z,1008.75
2017-11-11T01:29:39.003Z,1008.75
2017-11-11T01:30:17.990Z,1008.70
2017-11-11T01:31:17.983Z,1008.71
2017-11-11T01:32:17.978Z,1008.66
2017-11-11T01:33:17.968Z,1008.65
2017-11-11T01:34:17.962Z,1008.66
2017-11-11T01:35:38.967Z,1008.63
2017-11-11T01:36:17.951Z,1008.64
2017-11-11T01:37:17.943Z,1008.59
2017-11-11T01:38:17.950Z,1008.57
2017-11-11T01:39:17.933Z,1008.52
2017-11-11T01:40:17.921Z,1008.59
2017-11-11T01:41:38.925Z,1008.52
2017-11-11T01:42:17.910Z,1008.50
2017-11-11T01:43:17.902Z,1008.53
2017-11-11T01:44:17.894Z,1008.50
2017-11-11T01:45:17.908Z,1008.51
2017-11-11T01:46:17.881Z,1008.50
2017-11-11T01:47:38.881Z,1008.49
2017-11-11T01:48:17.866Z,1008.49
2017-11-11T01:49:17.873Z,1008.50
2017-11-11T01:50:17.851Z,1008.50
2017-11-11T01:51:17.843Z,1008.49
2017-11-11T01:52:17.842Z,1008.50
2017-11-11T01:53:38.839Z,1008.48
2017-11-11T01:54:17.828Z,1008.46
2017-11-11T01:55:17.818Z,1008.42
2017-11-11T01:56:17.814Z,1008.42
2017-11-11T01:57:17.812Z,1008.39
2017-11-11T01:58:17.798Z,1008.43
2017-11-11T01:59:38.800Z,1008.43
2017-11-11T02:00:17.783Z,1008.44
2017-11-11T02:01:17.775Z,1008.41
2017-11-11T02:02:17.773Z,1008.39
2017-11-11T02:03:17.763Z,1008.38
2017-11-11T02:04:17.756Z,1008.35
2017-11-11T02:05:38.757Z,1008.27
2017-11-11T02:06:18.551Z,1008.28
2017-11-11T02:07:17.744Z,1008.24
2017-11-11T02:08:17.744Z,1008.24
2017-11-11T02:09:17.719Z,1008.23
2017-11-11T02:10:17.721Z,1008.25
2017-11-11T02:11:38.715Z,1008.24
2017-11-11T02:12:17.701Z,1008.23
2017-11-11T02:13:17.695Z,1008.24
2017-11-11T02:14:17.687Z,1008.22
2017-11-11T02:15:17.679Z,1008.23
2017-11-11T02:16:17.669Z,1008.25
2017-11-11T02:17:38.675Z,1008.23
2017-11-11T02:18:17.664Z,1008.24
2017-11-11T02:19:17.655Z,1008.25
2017-11-11T02:20:17.648Z,1008.25
2017-11-11T02:21:17.641Z,1008.32
2017-11-11T02:22:17.635Z,1008.24
2017-11-11T02:23:38.636Z,1008.28
2017-11-11T02:24:17.619Z,1008.23
2017-11-11T02:25:17.623Z,1008.26
2017-11-11T02:26:17.607Z,1008.24
2017-11-11T02:27:17.601Z,1008.25
2017-11-11T02:28:17.594Z,1008.28
2017-11-11T02:29:38.592Z,1008.23
2017-11-11T02:30:17.575Z,1008.18
2017-11-11T02:31:17.574Z,1008.18
2017-11-11T02:32:17.564Z,1008.18
2017-11-11T02:33:17.563Z,1008.15
2017-11-11T02:34:17.556Z,1008.20
2017-11-11T02:35:38.555Z,1008.14
2017-11-11T02:36:17.542Z,1008.13
2017-11-11T02:37:17.533Z,1008.16
2017-11-11T02:38:17.525Z,1008.09
2017-11-11T02:39:17.519Z,1008.11
2017-11-11T02:40:17.509Z,1008.11
2017-11-11T02:41:38.512Z,1008.10
2017-11-11T02:42:17.496Z,1008.10
2017-11-11T02:43:17.493Z,1008.06
2017-11-11T02:44:17.483Z,1008.06
2017-11-11T02:45:17.476Z,1008.04
2017-11-11T02:46:17.469Z,1008.05
2017-11-11T02:47:38.474Z,1008.02
2017-11-11T02:48:17.457Z,1008.00
2017-11-11T02:49:17.457Z,1007.93
2017-11-11T02:50:17.441Z,1007.92
2017-11-11T02:51:17.438Z,1007.96
2017-11-11T02:52:17.430Z,1007.93
2017-11-11T02:53:38.430Z,1007.94
2017-11-11T02:54:17.412Z,1007.96
2017-11-11T02:55:17.407Z,1007.97
2017-11-11T02:56:17.402Z,1007.92
2017-11-11T02:57:17.406Z,1007.91
2017-11-11T02:58:17.399Z,1007.93
2017-11-11T02:59:38.388Z,1007.93
2017-11-11T03:00:17.373Z,1007.94
2017-11-11T03:01:17.369Z,1007.96
2017-11-11T03:02:17.362Z,1007.98
2017-11-11T03:03:17.360Z,1007.97
2017-11-11T03:04:17.348Z,1007.93
2017-11-11T03:05:38.349Z,1007.93
2017-11-11T03:06:17.333Z,1007.90
2017-11-11T03:07:17.328Z,1007.86
2017-11-11T03:08:17.320Z,1007.85
2017-11-11T03:09:17.316Z,1007.84
2017-11-11T03:10:17.303Z,1007.82
2017-11-11T03:11:38.307Z,1007.86
2017-11-11T03:12:17.291Z,1007.82
2017-11-11T03:13:17.286Z,1007.78
2017-11-11T03:14:17.277Z,1007.80
2017-11-11T03:15:17.270Z,1007.83
2017-11-11T03:16:17.267Z,1007.90
2017-11-11T03:17:38.265Z,1007.94
2017-11-11T03:18:17.253Z,1007.99
2017-11-11T03:19:17.245Z,1007.99
2017-11-11T03:20:17.240Z,1007.97
2017-11-11T03:21:17.232Z,1007.94
2017-11-11T03:22:17.225Z,1007.95
2017-11-11T03:23:38.228Z,1007.92
2017-11-11T03:24:17.210Z,1007.96
2017-11-11T03:25:17.206Z,1007.98
2017-11-11T03:26:17.200Z,1007.99
2017-11-11T03:27:17.190Z,1008.03
2017-11-11T03:28:17.185Z,1007.99
2017-11-11T03:29:38.195Z,1007.99
2017-11-11T03:30:17.177Z,1007.94
2017-11-11T03:31:17.169Z,1007.93
2017-11-11T03:32:17.154Z,1007.87
2017-11-11T03:33:17.147Z,1007.80
2017-11-11T03:34:17.139Z,1007.72
2017-11-11T03:35:38.144Z,1007.78
2017-11-11T03:36:17.131Z,1007.78
2017-11-11T03:37:17.119Z,1007.81
2017-11-11T03:38:17.116Z,1007.83
2017-11-11T03:39:17.114Z,1007.76
2017-11-11T03:40:17.102Z,1007.77
2017-11-11T03:41:38.102Z,1007.77
2017-11-11T03:42:17.085Z,1007.80
2017-11-11T03:43:17.082Z,1007.81
2017-11-11T03:44:17.072Z,1007.79
2017-11-11T03:45:17.067Z,1007.75
2017-11-11T03:46:17.060Z,1007.77
2017-11-11T03:47:38.060Z,1007.75
2017-11-11T03:48:17.046Z,1007.74
2017-11-11T03:49:17.037Z,1007.74
2017-11-11T03:50:17.033Z,1007.70
2017-11-11T03:51:17.026Z,1007.66
2017-11-11T03:52:17.018Z,1007.64
2017-11-11T03:53:38.021Z,1007.64
2017-11-11T03:54:17.003Z,1007.64
2017-11-11T03:55:16.998Z,1007.68
2017-11-11T03:56:16.993Z,1007.65
2017-11-11T03:57:16.984Z,1007.61
2017-11-11T03:58:16.979Z,1007.59
2017-11-11T03:59:37.981Z,1007.59
2017-11-11T04:00:16.965Z,1007.64
2017-11-11T04:01:16.958Z,1007.61
2017-11-11T04:02:16.951Z,1007.61
2017-11-11T04:03:16.945Z,1007.57
2017-11-11T04:04:16.939Z,1007.56
2017-11-11T04:05:37.937Z,1007.55
2017-11-11T04:06:16.924Z,1007.51
2017-11-11T04:07:16.917Z,1007.54
2017-11-11T04:08:16.914Z,1007.55
2017-11-11T04:09:16.905Z,1007.54
2017-11-11T04:10:16.897Z,1007.53
2017-11-11T04:11:37.903Z,1007.48
2017-11-11T04:12:16.884Z,1007.48
2017-11-11T04:13:16.878Z,1007.47
2017-11-11T04:14:16.869Z,1007.48
2017-11-11T04:15:16.865Z,1007.47
2017-11-11T04:16:16.859Z,1007.44
2017-11-11T04:17:37.858Z,1007.39
2017-11-11T04:18:16.844Z,1007.40
2017-11-11T04:19:16.840Z,1007.37
2017-11-11T04:20:16.834Z,1007.41
2017-11-11T04:21:16.824Z,1007.39
2017-11-11T04:22:16.818Z,1007.38
2017-11-11T04:23:37.819Z,1007.37
2017-11-11T04:24:16.803Z,1007.34
2017-11-11T04:25:16.797Z,1007.31
2017-11-11T04:26:16.802Z,1007.27
2017-11-11T04:27:16.793Z,1007.24
2017-11-11T04:28:16.781Z,1007.21
2017-11-11T04:29:37.777Z,1007.22
2017-11-11T04:30:16.765Z,1007.18
2017-11-11T04:31:16.760Z,1007.16
2017-11-11T04:32:16.752Z,1007.17
2017-11-11T04:33:16.746Z,1007.09
2017-11-11T04:34:16.738Z,1007.13
2017-11-11T04:35:37.738Z,1007.12
2017-11-11T04:36:16.721Z,1007.09
2017-11-11T04:37:16.718Z,1007.07
2017-11-11T04:38:16.712Z,1007.03
2017-11-11T04:39:16.703Z,1007.02
2017-11-11T04:40:16.700Z,1007.04
2017-11-11T04:41:37.700Z,1007.01
2017-11-11T04:42:16.684Z,1007.00
2017-11-11T04:43:16.679Z,1007.01
2017-11-11T04:44:16.670Z,1007.04
2017-11-11T04:45:16.663Z,1007.07
2017-11-11T04:46:16.659Z,1007.12
2017-11-11T04:47:37.660Z,1007.11
2017-11-11T04:48:16.648Z,1007.15
2017-11-11T04:49:16.640Z,1007.11
2017-11-11T04:50:16.635Z,1007.12
2017-11-11T04:51:16.628Z,1007.14
2017-11-11T04:52:16.621Z,1007.14
2017-11-11T04:53:37.620Z,1007.15
2017-11-11T04:54:16.626Z,1007.23
2017-11-11T04:55:16.599Z,1007.22
2017-11-11T04:56:16.596Z,1007.17
2017-11-11T04:57:16.587Z,1007.18
2017-11-11T04:58:16.585Z,1007.17
2017-11-11T04:59:37.581Z,1007.15
2017-11-11T05:00:16.569Z,1007.14
2017-11-11T05:01:16.561Z,1007.15
2017-11-11T05:02:16.561Z,1007.09
2017-11-11T05:03:16.551Z,1007.05
2017-11-11T05:04:16.547Z,1007.00
2017-11-11T05:05:37.543Z,1007.00
2017-11-11T05:06:16.531Z,1007.07
2017-11-11T05:07:16.525Z,1007.04
2017-11-11T05:08:16.523Z,1007.05
2017-11-11T05:09:16.511Z,1007.02
2017-11-11T05:10:16.505Z,1007.00
2017-11-11T05:11:37.513Z,1006.97
2017-11-11T05:12:16.489Z,1006.99
2017-11-11T05:13:16.485Z,1007.01
2017-11-11T05:14:16.478Z,1006.96
2017-11-11T05:15:16.474Z,1006.98
2017-11-11T05:16:16.473Z,1006.92
2017-11-11T05:17:37.463Z,1006.88
2017-11-11T05:18:16.452Z,1006.94
2017-11-11T05:19:16.446Z,1006.90
2017-11-11T05:20:16.440Z,1006.88
2017-11-11T05:21:16.432Z,1006.86
2017-11-11T05:22:16.427Z,1006.93
2017-11-11T05:23:37.427Z,1006.87
2017-11-11T05:24:16.416Z,1006.85
2017-11-11T05:25:16.405Z,1006.85
2017-11-11T05:26:16.406Z,1006.81
2017-11-11T05:27:16.394Z,1006.79
2017-11-11T05:28:16.388Z,1006.79
2017-11-11T05:29:37.388Z,1006.76
2017-11-11T05:30:16.374Z,1006.73
2017-11-11T05:31:16.372Z,1006.74
2017-11-11T05:32:16.363Z,1006.74
2017-11-11T05:33:16.355Z,1006.69
2017-11-11T05:34:16.349Z,1006.69
2017-11-11T05:35:37.353Z,1006.68
2017-11-11T05:36:16.337Z,1006.70
2017-11-11T05:37:16.326Z,1006.74
2017-11-11T05:38:16.323Z,1006.74
2017-11-11T05:39:16.317Z,1006.73
2017-11-11T05:40:16.308Z,1006.68
2017-11-11T05:41:37.309Z,1006.72
2017-11-11T05:42:16.299Z,1006.71
2017-11-11T05:43:16.294Z,1006.72
2017-11-11T05:44:16.286Z,1006.73
2017-11-11T05:45:16.277Z,1006.78
2017-11-11T05:46:16.276Z,1006.74
2017-11-11T05:47:37.274Z,1006.76
2017-11-11T05:48:16.261Z,1006.72
2017-11-11T05:49:16.256Z,1006.73
2017-11-11T05:50:16.247Z,1006.71
2017-11-11T05:51:16.245Z,1006.72
2017-11-11T05:52:16.235Z,1006.70
2017-11-11T05:53:37.234Z,1006.67
2017-11-11T05:54:16.224Z,1006.67
2017-11-11T05:55:16.215Z,1006.66
2017-11-11T05:56:16.212Z,1006.63
2017-11-11T05:57:16.201Z,1006.63
2017-11-11T05:58:16.195Z,1006.67
2017-11-11T05:59:37.198Z,1006.69
2017-11-11T06:00:16.184Z,1006.66
2017-11-11T06:01:16.175Z,1006.66
2017-11-11T06:02:16.178Z,1006.66
2017-11-11T06:03:16.164Z,1006.70
2017-11-11T06:04:16.155Z,1006.66
2017-11-11T06:05:37.155Z,1006.64
2017-11-11T06:06:16.144Z,1006.62
2017-11-11T06:07:16.136Z,1006.58
2017-11-11T06:08:16.135Z,1006.63
2017-11-11T06:09:16.125Z,1006.57
2017-11-11T06:10:16.119Z,1006.51
2017-11-11T06:11:37.123Z,1006.51
2017-11-11T06:12:16.108Z,1006.51
2017-11-11T06:13:16.101Z,1006.49
2017-11-11T06:14:16.098Z,1006.53
2017-11-11T06:15:16.086Z,1006.51
2017-11-11T06:16:16.091Z,1006.52
2017-11-11T06:17:37.078Z,1006.46
2017-11-11T06:18:16.067Z,1006.52
2017-11-11T06:19:16.064Z,1006.46
2017-11-11T06:20:16.056Z,1006.45
2017-11-11T06:21:16.045Z,1006.40
2017-11-11T06:22:16.049Z,1006.41
2017-11-11T06:23:37.045Z,1006.44
2017-11-11T06:24:16.031Z,1006.37
2017-11-11T06:25:16.023Z,1006.40
2017-11-11T06:26:16.019Z,1006.37
2017-11-11T06:27:16.042Z,1006.37
2017-11-11T06:28:16.004Z,1006.31
2017-11-11T06:29:37.002Z,1006.30
2017-11-11T06:30:15.990Z,1006.30
2017-11-11T06:31:16.007Z,1006.37
2017-11-11T06:32:15.977Z,1006.36
2017-11-11T06:33:15.969Z,1006.32
2017-11-11T06:34:15.966Z,1006.29
2017-11-11T06:35:36.969Z,1006.33
2017-11-11T06:36:15.951Z,1006.31
2017-11-11T06:37:15.946Z,1006.30
2017-11-11T06:38:15.946Z,1006.24
2017-11-11T06:39:15.934Z,1006.25
2017-11-11T06:40:15.929Z,1006.27
2017-11-11T06:41:36.925Z,1006.19
2017-11-11T06:42:15.918Z,1006.19
2017-11-11T06:43:15.912Z,1006.23
2017-11-11T06:44:15.908Z,1006.18
2017-11-11T06:45:15.897Z,1006.18
2017-11-11T06:46:15.893Z,1006.16
2017-11-11T06:47:36.914Z,1006.21
2017-11-11T06:48:15.878Z,1006.24
2017-11-11T06:49:15.872Z,1006.24
2017-11-11T06:50:15.861Z,1006.23
2017-11-11T06:51:15.856Z,1006.22
2017-11-11T06:52:15.850Z,1006.16
2017-11-11T06:53:36.854Z,1006.17
2017-11-11T06:54:15.841Z,1006.13
2017-11-11T06:55:15.831Z,1006.08
2017-11-11T06:56:15.834Z,1006.07
2017-11-11T06:57:15.819Z,1006.09
2017-11-11T06:58:15.815Z,1006.09
2017-11-11T06:59:36.817Z,1006.14
2017-11-11T07:00:15.805Z,1006.15
2017-11-11T07:01:15.816Z,1006.13
2017-11-11T07:02:15.788Z,1006.16
2017-11-11T07:03:15.790Z,1006.15
2017-11-11T07:04:15.779Z,1006.11
2017-11-11T07:05:36.777Z,1006.15
2017-11-11T07:06:15.767Z,1006.13
2017-11-11T07:07:15.763Z,1006.10
2017-11-11T07:08:15.753Z,1006.09
2017-11-11T07:09:15.750Z,1006.08
2017-11-11T07:10:15.741Z,1006.11
2017-11-11T07:11:36.744Z,1006.09
2017-11-11T07:12:15.727Z,1006.10
2017-11-11T07:13:15.724Z,1006.09
2017-11-11T07:14:15.716Z,1006.05
2017-11-11T07:15:15.712Z,1006.05
2017-11-11T07:16:15.708Z,1006.04
2017-11-11T07:17:36.707Z,1006.02
2017-11-11T07:18:15.692Z,1006.02
2017-11-11T07:19:15.691Z,1006.01
2017-11-11T07:20:15.688Z,1005.94
2017-11-11T07:21:15.668Z,1005.98
2017-11-11T07:22:15.663Z,1005.98
2017-11-11T07:23:36.673Z,1005.97
2017-11-11T07:24:15.656Z,1005.91
2017-11-11T07:25:15.648Z,1005.90
2017-11-11T07:26:15.645Z,1005.88
2017-11-11T07:27:15.637Z,1005.88
2017-11-11T07:28:15.631Z,1005.88
2017-11-11T07:29:36.630Z,1005.88
2017-11-11T07:30:15.619Z,1005.89
2017-11-11T07:31:15.614Z,1005.82
2017-11-11T07:32:15.608Z,1005.78
2017-11-11T07:33:15.599Z,1005.77
2017-11-11T07:34:15.594Z,1005.72
2017-11-11T07:35:36.605Z,1005.69
2017-11-11T07:36:15.580Z,1005.70
2017-11-11T07:37:15.577Z,1005.71
2017-11-11T07:38:15.582Z,1005.67
2017-11-11T07:39:15.562Z,1005.64
2017-11-11T07:40:15.559Z,1005.61
2017-11-11T07:41:36.562Z,1005.63
2017-11-11T07:42:15.548Z,1005.65
2017-11-11T07:43:15.543Z,1005.64
2017-11-11T07:44:15.539Z,1005.65
2017-11-11T07:45:15.528Z,1005.62
2017-11-11T07:46:15.529Z,1005.59
2017-11-11T07:47:36.525Z,1005.56
2017-11-11T07:48:15.513Z,1005.58
2017-11-11T07:49:15.505Z,1005.53
2017-11-11T07:50:15.500Z,1005.46
2017-11-11T07:51:15.496Z,1005.46
2017-11-11T07:52:15.486Z,1005.45
2017-11-11T07:53:36.489Z,1005.37
2017-11-11T07:54:15.475Z,1005.43
2017-11-11T07:55:15.469Z,1005.38
2017-11-11T07:56:15.469Z,1005.35
2017-11-11T07:57:15.453Z,1005.37
2017-11-11T07:58:15.450Z,1005.33
2017-11-11T07:59:36.450Z,1005.33
2017-11-11T08:00:15.437Z,1005.28
2017-11-11T08:01:15.433Z,1005.23
2017-11-11T08:02:15.423Z,1005.23
2017-11-11T08:03:15.420Z,1005.27
2017-11-11T08:04:15.415Z,1005.32
2017-11-11T08:05:36.413Z,1005.30
2017-11-11T08:06:15.399Z,1005.29
2017-11-11T08:07:15.399Z,1005.35
2017-11-11T08:08:15.389Z,1005.31
2017-11-11T08:09:15.385Z,1005.30
2017-11-11T08:10:15.383Z,1005.33
2017-11-11T08:11:36.380Z,1005.36
2017-11-11T08:12:15.365Z,1005.35
2017-11-11T08:13:15.358Z,1005.31
2017-11-11T08:14:15.351Z,1005.32
2017-11-11T08:15:15.347Z,1005.27
2017-11-11T08:16:15.341Z,1005.21
2017-11-11T08:17:36.347Z,1005.21
2017-11-11T08:18:15.329Z,1005.15
2017-11-11T08:19:15.326Z,1005.15
2017-11-11T08:20:15.314Z,1005.16
2017-11-11T08:21:15.310Z,1005.13
2017-11-11T08:22:15.303Z,1005.12
2017-11-11T08:23:36.303Z,1005.13
2017-11-11T08:24:15.289Z,1005.17
2017-11-11T08:25:15.285Z,1005.18
2017-11-11T08:26:15.281Z,1005.22
2017-11-11T08:27:15.274Z,1005.18
2017-11-11T08:28:15.266Z,1005.12
2017-11-11T08:29:36.266Z,1005.14
2017-11-11T08:30:15.252Z,1005.17
2017-11-11T08:31:15.259Z,1005.12
2017-11-11T08:32:15.246Z,1005.12
2017-11-11T08:33:15.243Z,1005.11
2017-11-11T08:34:15.229Z,1005.14
2017-11-11T08:35:36.234Z,1005.08
2017-11-11T08:36:15.219Z,1004.99
2017-11-11T08:37:15.240Z,1004.95
2017-11-11T08:38:15.232Z,1004.96
2017-11-11T08:39:15.200Z,1004.94
2017-11-11T08:40:15.193Z,1004.93
2017-11-11T08:41:36.195Z,1004.90
2017-11-11T08:42:15.200Z,1004.89
2017-11-11T08:43:15.179Z,1004.86
2017-11-11T08:44:15.172Z,1004.86
2017-11-11T08:45:15.164Z,1004.91
2017-11-11T08:46:15.159Z,1004.96
2017-11-11T08:47:36.183Z,1004.95
2017-11-11T08:48:15.149Z,1005.01
2017-11-11T08:49:15.141Z,1004.98
2017-11-11T08:50:15.133Z,1004.99
2017-11-11T08:51:15.128Z,1004.94
2017-11-11T08:52:15.125Z,1004.93
2017-11-11T08:53:36.135Z,1004.90
2017-11-11T08:54:15.187Z,1004.88
2017-11-11T08:55:15.104Z,1004.90
2017-11-11T08:56:15.101Z,1004.88
2017-11-11T08:57:15.092Z,1004.88
2017-11-11T08:58:15.090Z,1004.89
2017-11-11T08:59:36.089Z,1004.85
2017-11-11T09:00:15.084Z,1004.87
2017-11-11T09:01:15.067Z,1004.79
2017-11-11T09:02:15.065Z,1004.79
2017-11-11T09:03:15.062Z,1004.79
2017-11-11T09:04:15.054Z,1004.78
2017-11-11T09:05:36.052Z,1004.75
2017-11-11T09:06:15.038Z,1004.76
2017-11-11T09:07:15.036Z,1004.75
2017-11-11T09:08:15.031Z,1004.70
2017-11-11T09:09:15.025Z,1004.73
2017-11-11T09:10:15.019Z,1004.70
2017-11-11T09:11:36.017Z,1004.66
2017-11-11T09:12:15.014Z,1004.66
2017-11-11T09:13:15.011Z,1004.64
2017-11-11T09:14:15.041Z,1004.63
2017-11-11T09:15:14.990Z,1004.60
2017-11-11T09:16:15.009Z,1004.56
2017-11-11T09:17:35.984Z,1004.53
2017-11-11T09:18:14.988Z,1004.51
2017-11-11T09:19:14.987Z,1004.45
2017-11-11T09:20:14.962Z,1004.45
2017-11-11T09:21:14.956Z,1004.46
2017-11-11T09:22:14.959Z,1004.43
2017-11-11T09:23:35.958Z,1004.47
2017-11-11T09:24:14.938Z,1004.49
2017-11-11T09:25:14.930Z,1004.47
2017-11-11T09:26:14.924Z,1004.42
2017-11-11T09:27:14.921Z,1004.40
2017-11-11T09:28:14.916Z,1004.38
2017-11-11T09:29:35.920Z,1004.39
2017-11-11T09:30:14.907Z,1004.36
2017-11-11T09:31:14.909Z,1004.36
2017-11-11T09:32:14.893Z,1004.35
2017-11-11T09:33:14.886Z,1004.36
2017-11-11T09:34:14.880Z,1004.33
2017-11-11T09:35:35.885Z,1004.31
2017-11-11T09:36:14.892Z,1004.31
2017-11-11T09:37:14.863Z,1004.31
2017-11-11T09:38:14.857Z,1004.27
2017-11-11T09:39:14.852Z,1004.27
2017-11-11T09:40:14.845Z,1004.23
2017-11-11T09:41:35.880Z,1004.19
2017-11-11T09:42:14.833Z,1004.21
2017-11-11T09:43:14.831Z,1004.19
2017-11-11T09:44:14.829Z,1004.16
2017-11-11T09:45:14.831Z,1004.20
2017-11-11T09:46:14.810Z,1004.16
2017-11-11T09:47:35.813Z,1004.17
2017-11-11T09:48:14.807Z,1004.15
2017-11-11T09:49:14.795Z,1004.19
2017-11-11T09:50:14.800Z,1004.16
2017-11-11T09:51:14.787Z,1004.13
2017-11-11T09:52:14.780Z,1004.16
2017-11-11T09:53:35.779Z,1004.15
2017-11-11T09:54:14.766Z,1004.14
2017-11-11T09:55:14.761Z,1004.10
2017-11-11T09:56:14.752Z,1004.09
2017-11-11T09:57:14.749Z,1004.04
2017-11-11T09:58:14.744Z,1003.96
2017-11-11T09:59:35.747Z,1003.94
2017-11-11T10:00:14.731Z,1003.92
2017-11-11T10:01:14.726Z,1003.82
2017-11-11T10:02:14.722Z,1003.80
2017-11-11T10:03:14.719Z,1003.81
2017-11-11T10:04:14.713Z,1003.82
2017-11-11T10:05:35.714Z,1003.76
2017-11-11T10:06:14.701Z,1003.72
2017-11-11T10:07:14.696Z,1003.69
2017-11-11T10:08:14.687Z,1003.70
2017-11-11T10:09:14.685Z,1003.65
2017-11-11T10:10:14.675Z,1003.62
2017-11-11T10:11:35.681Z,1003.69
2017-11-11T10:12:14.667Z,1003.65
2017-11-11T10:13:14.660Z,1003.65
2017-11-11T10:14:14.656Z,1003.64
2017-11-11T10:15:14.648Z,1003.61
2017-11-11T10:16:14.646Z,1003.62
2017-11-11T10:17:35.646Z,1003.56
2017-11-11T10:18:14.633Z,1003.58
2017-11-11T10:19:14.627Z,1003.56
2017-11-11T10:20:14.621Z,1003.51
2017-11-11T10:21:14.616Z,1003.49
2017-11-11T10:22:14.613Z,1003.52
2017-11-11T10:23:35.611Z,1003.49
2017-11-11T10:24:14.599Z,1003.49
2017-11-11T10:25:14.593Z,1003.44
2017-11-11T10:26:14.589Z,1003.42
2017-11-11T10:27:14.584Z,1003.39
2017-11-11T10:28:14.584Z,1003.38
2017-11-11T10:29:35.589Z,1003.31
2017-11-11T10:30:14.566Z,1003.31
2017-11-11T10:31:14.565Z,1003.33
2017-11-11T10:32:14.560Z,1003.33
2017-11-11T10:33:14.565Z,1003.34
2017-11-11T10:34:14.551Z,1003.33
2017-11-11T10:35:35.551Z,1003.30
2017-11-11T10:36:14.537Z,1003.36
2017-11-11T10:37:14.529Z,1003.34
2017-11-11T10:38:14.528Z,1003.25
2017-11-11T10:39:14.523Z,1003.25
2017-11-11T10:40:14.514Z,1003.22
2017-11-11T10:41:35.519Z,1003.18
2017-11-11T10:42:14.511Z,1003.16
2017-11-11T10:43:14.503Z,1003.13
2017-11-11T10:44:14.501Z,1003.07
2017-11-11T10:45:14.487Z,1003.05
2017-11-11T10:46:14.497Z,1003.03
2017-11-11T10:47:35.487Z,1002.96
2017-11-11T10:48:14.484Z,1002.94
2017-11-11T10:49:14.470Z,1002.90
2017-11-11T10:50:14.461Z,1002.86
2017-11-11T10:51:14.457Z,1002.83
2017-11-11T10:52:14.454Z,1002.82
2017-11-11T10:53:35.455Z,1002.78
2017-11-11T10:54:14.444Z,1002.76
2017-11-11T10:55:14.459Z,1002.75
2017-11-11T10:56:14.433Z,1002.71
2017-11-11T10:57:14.429Z,1002.69
2017-11-11T10:58:14.424Z,1002.66
2017-11-11T10:59:35.424Z,1002.67
2017-11-11T11:00:14.410Z,1002.61
2017-11-11T11:01:14.408Z,1002.60
2017-11-11T11:02:14.405Z,1002.56
2017-11-11T11:03:14.401Z,1002.53
2017-11-11T11:04:14.389Z,1002.48
2017-11-11T11:05:35.393Z,1002.48
2017-11-11T11:06:14.382Z,1002.45
2017-11-11T11:07:14.379Z,1002.37
2017-11-11T11:08:14.373Z,1002.38
2017-11-11T11:09:14.372Z,1002.35
2017-11-11T11:10:14.360Z,1002.35
2017-11-11T11:11:35.364Z,1002.29
2017-11-11T11:12:14.349Z,1002.24
2017-11-11T11:13:14.347Z,1002.25
2017-11-11T11:14:14.347Z,1002.21
2017-11-11T11:15:14.333Z,1002.20
2017-11-11T11:16:14.327Z,1002.16
2017-11-11T11:17:35.350Z,1002.09
2017-11-11T11:18:14.320Z,1002.07
2017-11-11T11:19:14.312Z,1002.05
2017-11-11T11:20:14.310Z,1002.00
2017-11-11T11:21:14.304Z,1001.97
2017-11-11T11:22:14.301Z,1001.92
2017-11-11T11:23:35.302Z,1001.86
2017-11-11T11:24:14.288Z,1001.82
2017-11-11T11:25:14.284Z,1001.75
2017-11-11T11:26:14.282Z,1001.74
2017-11-11T11:27:14.283Z,1001.70
2017-11-11T11:28:14.268Z,1001.63
2017-11-11T11:29:35.272Z,1001.61
2017-11-11T11:30:14.260Z,1001.55
2017-11-11T11:31:14.259Z,1001.50
2017-11-11T11:32:14.247Z,1001.44
2017-11-11T11:33:14.246Z,1001.35
2017-11-11T11:34:14.238Z,1001.40
2017-11-11T11:35:35.241Z,1001.37
2017-11-11T11:36:14.229Z,1001.33
2017-11-11T11:37:14.238Z,1001.34
2017-11-11T11:38:14.219Z,1001.27
2017-11-11T11:39:14.248Z,1001.26
2017-11-11T11:40:14.209Z,1001.24
2017-11-11T11:41:35.205Z,1001.21
2017-11-11T11:42:14.199Z,1001.16
2017-11-11T11:43:14.921Z,1001.12
2017-11-11T11:44:14.187Z,1001.10
2017-11-11T11:45:14.180Z,1001.08
2017-11-11T11:46:14.179Z,1001.06
2017-11-11T11:47:35.182Z,1001.10
2017-11-11T11:48:14.165Z,1001.07
2017-11-11T11:49:14.159Z,1001.10
2017-11-11T11:50:14.166Z,1001.05
2017-11-11T11:51:14.153Z,1001.05
2017-11-11T11:52:14.146Z,1001.00
2017-11-11T11:53:35.154Z,1001.00
2017-11-11T11:54:14.136Z,1001.03
2017-11-11T11:55:14.132Z,1000.94
2017-11-11T11:56:14.125Z,1000.95
2017-11-11T11:57:14.119Z,1000.92
2017-11-11T11:58:14.134Z,1000.89
2017-11-11T11:59:35.124Z,1000.89
2017-11-11T12:00:14.104Z,1000.87
2017-11-11T12:01:14.097Z,1000.82
2017-11-11T12:02:14.097Z,1000.74
2017-11-11T12:03:14.091Z,1000.78
2017-11-11T12:04:14.084Z,1000.74
2017-11-11T12:05:35.087Z,1000.72